Weather reports worldwide

Advertisment
Madronera, Spain (8263): temperature & dewpoint: 19.08.2019 14:00:00 - 25.08.2019 14:00:00 (CEST)Madronera, Spain (8263): wind speed & gusts: 19.08.2019 14:00:00 - 25.08.2019 14:00:00 (CEST)Madronera, Spain (8263): wind direction: 19.08.2019 14:00:00 - 25.08.2019 14:00:00 (CEST)Madronera, Spain (8263): precipitation: 19.08.2019 14:00:00 - 25.08.2019 14:00:00 (CEST)
Date & Time tt [°C] td [°C] ff [km/h] ff [kn] fx [km/h] fx [kn] dd rr [mm]
25.08.2019 14:00:00 30,4 12,7 9 5 22 12 ESE -
25.08.2019 13:00:00 29,4 12,7 8 5 23 13 SE 0,0
25.08.2019 12:00:00 27,9 12,2 9 5 22 12 SSE 0,0
25.08.2019 11:00:00 26,4 11,3 8 4 23 12 ESE 0,0
25.08.2019 10:00:00 24,8 10,6 11 6 25 14 ESE 0,0
25.08.2019 09:00:00 23,4 10,0 14 8 23 12 ESE 0,0
25.08.2019 08:00:00 22,9 9,3 12 6 30 16 SE -
25.08.2019 07:00:00 23,3 8,1 1 0 26 14 ENE 0,0
25.08.2019 06:00:00 24,0 8,0 12 6 21 12 SE 0,0
25.08.2019 05:00:00 23,6 7,7 5 3 9 5 ENE 0,0
25.08.2019 04:00:00 24,8 7,4 4 2 13 7 SSW 0,0
25.08.2019 03:00:00 25,8 6,8 5 3 32 17 SSE 0,0
25.08.2019 02:00:00 25,4 6,5 0 0 7 4 SSE -
25.08.2019 01:00:00 26,3 5,8 1 1 15 8 SW 0,0
25.08.2019 00:00:00 27,5 6,2 2 1 10 5 SE 0,0
24.08.2019 23:00:00 28,8 6,8 4 2 8 4 SSE 0,0
24.08.2019 22:00:00 30,0 7,3 2 1 11 6 S 0,0
24.08.2019 21:00:00 32,8 8,9 4 2 19 11 S 0,0
24.08.2019 20:00:00 35,6 10,6 5 3 16 8 S -
24.08.2019 19:00:00 36,5 11,3 4 2 18 10 S 0,0
24.08.2019 18:00:00 35,8 10,8 7 4 21 12 S 0,0
24.08.2019 17:00:00 34,9 10,0 6 3 26 14 WNW 0,0
24.08.2019 16:00:00 35,7 11,3 5 3 25 14 W 0,0
24.08.2019 15:00:00 35,4 11,1 7 4 27 15 SSE 0,0
24.08.2019 14:00:00 34,3 10,2 3 2 21 12 S -
24.08.2019 13:00:00 33,2 10,5 4 2 22 12 SSE 0,0
24.08.2019 12:00:00 32,0 10,0 5 3 15 8 SW 0,0
24.08.2019 11:00:00 30,7 9,0 3 2 8 4 S 0,0
24.08.2019 10:00:00 29,3 8,4 2 1 7 4 E 0,0
24.08.2019 09:00:00 25,0 6,2 0 0 5 3 E 0,0
24.08.2019 08:00:00 21,5 3,2 0 0 7 4 N -
24.08.2019 07:00:00 22,8 3,8 1 1 8 4 SSE 0,0
24.08.2019 06:00:00 23,7 3,6 2 1 7 4 ENE 0,0
24.08.2019 05:00:00 25,9 5,0 6 3 18 10 E 0,0
24.08.2019 04:00:00 27,1 5,3 12 7 22 12 ESE 0,0
24.08.2019 03:00:00 27,3 6,1 9 5 16 9 SE 0,0
24.08.2019 02:00:00 27,9 6,5 8 4 18 10 E -
24.08.2019 01:00:00 27,7 7,0 6 3 14 7 E 0,0
24.08.2019 00:00:00 26,3 5,3 3 2 6 3 NE 0,0
23.08.2019 23:00:00 27,5 6,2 5 3 13 7 NE 0,0
23.08.2019 22:00:00 30,9 8,0 6 3 14 7 N 0,0
23.08.2019 21:00:00 32,8 9,6 6 3 13 7 NW 0,0
23.08.2019 20:00:00 34,8 10,6 6 4 20 11 NW -
23.08.2019 19:00:00 35,4 11,8 7 4 21 11 W 0,0
23.08.2019 18:00:00 35,6 11,9 4 2 21 11 NW 0,0
23.08.2019 17:00:00 34,7 11,8 6 4 22 12 N 0,0
23.08.2019 16:00:00 34,6 12,3 5 3 21 11 W 0,0
23.08.2019 15:00:00 34,0 12,3 2 1 19 10 NNE 0,0
23.08.2019 14:00:00 33,3 12,8 8 4 16 8 WSW -
23.08.2019 13:00:00 31,7 13,0 3 2 13 7 NNE 0,0
23.08.2019 12:00:00 31,2 13,5 5 3 12 7 WSW 0,0
23.08.2019 11:00:00 29,5 12,4 3 2 15 8 S 0,0
23.08.2019 10:00:00 28,2 11,3 3 2 15 8 NE 0,0
23.08.2019 09:00:00 25,1 9,4 5 3 9 5 E 0,0
23.08.2019 08:00:00 22,4 7,4 0 0 10 5 S -
23.08.2019 07:00:00 23,4 7,0 6 3 9 5 NE 0,0
23.08.2019 06:00:00 25,6 8,1 5 3 16 9 E 0,0
23.08.2019 05:00:00 26,1 7,7 4 2 22 12 N 0,0
23.08.2019 04:00:00 25,8 6,4 6 3 14 8 ESE 0,0
23.08.2019 03:00:00 25,5 6,1 5 3 10 6 ESE 0,0
23.08.2019 02:00:00 26,3 6,8 4 2 16 8 E -
23.08.2019 01:00:00 26,9 6,8 6 3 14 8 ENE 0,0
23.08.2019 00:00:00 27,1 7,0 6 3 14 7 ENE 0,0
22.08.2019 23:00:00 27,7 8,0 6 4 11 6 ENE 0,0
22.08.2019 22:00:00 29,4 8,4 3 2 11 6 NE 0,0
22.08.2019 21:00:00 32,2 10,3 5 3 14 7 NE 0,0
22.08.2019 20:00:00 33,5 11,3 5 3 19 10 N -
22.08.2019 19:00:00 35,0 12,6 4 2 21 11 N 0,0
22.08.2019 18:00:00 33,6 12,0 8 4 22 12 ENE 0,0
22.08.2019 17:00:00 33,9 12,3 5 3 22 12 NW 0,0
22.08.2019 16:00:00 33,9 11,7 4 2 23 12 E 0,0
22.08.2019 15:00:00 33,3 11,8 7 4 24 13 NNE 0,0
22.08.2019 14:00:00 32,6 11,7 6 3 20 11 E -
22.08.2019 13:00:00 31,5 11,8 8 4 21 11 ENE 0,0
22.08.2019 12:00:00 30,7 13,5 7 4 19 11 ENE 0,0
22.08.2019 11:00:00 29,3 14,7 6 3 21 12 NE 0,0
22.08.2019 10:00:00 26,7 14,8 7 4 16 9 NNE 0,0
22.08.2019 09:00:00 23,2 15,0 6 3 15 8 NNE 0,0
22.08.2019 08:00:00 20,2 13,5 7 4 17 9 NE -
22.08.2019 07:00:00 20,6 13,3 7 4 16 9 NE 0,0
22.08.2019 06:00:00 20,9 12,8 8 4 13 7 NE 0,0
22.08.2019 05:00:00 23,0 13,0 1 0 13 7 N 0,0
22.08.2019 04:00:00 23,8 11,8 5 3 11 6 N 0,0
22.08.2019 03:00:00 25,5 12,0 5 3 14 8 ESE 0,0
22.08.2019 02:00:00 25,2 9,9 5 3 10 5 E -
22.08.2019 01:00:00 25,4 9,3 5 3 11 6 ENE 0,0
22.08.2019 00:00:00 26,2 10,4 6 3 13 7 E 0,0
21.08.2019 23:00:00 25,9 8,4 6 3 10 6 ENE 0,0
21.08.2019 22:00:00 27,5 9,3 5 3 9 5 ENE 0,0
21.08.2019 21:00:00 30,4 10,9 4 2 13 7 NE 0,0
21.08.2019 20:00:00 31,8 12,1 7 4 19 10 NE -
21.08.2019 19:00:00 32,5 12,6 7 4 26 14 NNE 0,0
21.08.2019 18:00:00 33,6 11,4 3 1 21 12 NNW 0,0
21.08.2019 17:00:00 33,7 11,6 10 6 21 12 WSW 0,0
21.08.2019 16:00:00 33,0 13,7 8 5 19 11 WNW 0,0
21.08.2019 15:00:00 30,7 12,5 3 2 18 10 NNW 0,0
21.08.2019 14:00:00 31,0 15,0 2 1 19 10 NNW -
21.08.2019 13:00:00 29,7 14,6 4 2 19 11 E 0,0
21.08.2019 12:00:00 28,2 15,5 5 3 16 9 SE 0,0
21.08.2019 11:00:00 27,0 16,0 5 3 17 9 NNE 0,0
21.08.2019 10:00:00 25,3 15,9 10 5 18 10 NE 0,0
21.08.2019 09:00:00 21,7 15,1 7 4 14 7 NNE 0,0
21.08.2019 08:00:00 20,1 14,0 10 5 19 10 NE -
21.08.2019 07:00:00 20,4 13,6 9 5 18 10 NE 0,0
21.08.2019 06:00:00 21,1 13,6 6 3 19 10 NNE 0,0
21.08.2019 05:00:00 22,6 13,9 8 5 21 11 NNE 0,0
21.08.2019 04:00:00 23,0 9,8 7 4 18 10 NNE 0,0
21.08.2019 03:00:00 24,5 8,0 11 6 19 11 NE 0,0
21.08.2019 02:00:00 23,8 6,5 4 2 10 6 NNE -
21.08.2019 01:00:00 24,6 6,8 3 2 7 4 NW 0,0
21.08.2019 00:00:00 25,9 7,0 4 2 9 5 NE 0,0
20.08.2019 23:00:00 26,1 6,7 2 1 7 4 WNW 0,0
20.08.2019 22:00:00 28,4 7,0 3 1 9 5 WNW 0,0
20.08.2019 21:00:00 31,1 8,8 6 4 20 11 WNW 0,0
20.08.2019 20:00:00 32,9 9,7 10 5 21 11 WNW -
20.08.2019 19:00:00 33,9 11,1 6 3 22 12 SW 0,0
20.08.2019 18:00:00 33,1 11,0 10 5 26 14 W 0,0
20.08.2019 17:00:00 32,5 11,1 13 7 24 13 NW 0,0
20.08.2019 16:00:00 32,7 11,2 10 6 20 11 WSW 0,0
20.08.2019 15:00:00 31,4 11,2 7 4 20 11 W 0,0
20.08.2019 14:00:00 29,5 10,6 3 2 16 8 N -
20.08.2019 13:00:00 27,7 11,7 4 2 11 6 W 0,0
20.08.2019 12:00:00 25,7 11,4 3 1 11 6 NNW 0,0
20.08.2019 11:00:00 23,3 11,3 2 1 9 5 W 0,0
20.08.2019 10:00:00 20,6 10,6 1 0 6 3 WSW 0,0
20.08.2019 09:00:00 18,3 9,9 3 2 8 4 SSE 0,0
20.08.2019 08:00:00 16,8 9,0 3 2 8 4 S -
20.08.2019 07:00:00 17,3 8,7 3 1 14 8 SSW 0,0
20.08.2019 06:00:00 18,2 8,5 8 4 14 7 SSW 0,0
20.08.2019 05:00:00 19,3 8,7 4 2 10 5 SSE 0,0
20.08.2019 04:00:00 20,1 8,8 3 2 11 6 SSW 0,0
20.08.2019 03:00:00 20,8 7,7 4 2 24 13 SSE 0,0
20.08.2019 02:00:00 22,6 8,0 16 9 28 15 WSW -
20.08.2019 01:00:00 23,4 6,7 12 6 26 14 SW 0,0
20.08.2019 00:00:00 24,1 5,9 16 8 29 16 WSW 0,0
19.08.2019 23:00:00 25,1 6,2 19 10 36 19 WSW 0,0
19.08.2019 22:00:00 27,2 4,8 9 5 16 9 W 0,0
19.08.2019 21:00:00 28,1 5,6 13 7 21 11 WNW 0,0
19.08.2019 20:00:00 29,1 6,4 13 7 28 15 WNW -
19.08.2019 19:00:00 31,3 7,0 12 7 29 16 W 0,0
19.08.2019 18:00:00 32,8 6,8 9 5 26 14 WSW 0,0
19.08.2019 17:00:00 32,0 6,2 8 5 34 18 SSW 0,0
19.08.2019 16:00:00 32,6 6,7 7 4 24 13 SW 0,0
19.08.2019 15:00:00 31,3 7,0 9 5 25 13 WSW 0,0
19.08.2019 14:00:00 29,1 7,0 6 4 22 12 S -

tt = temperature
td = dewpoint
ff = wind speed
fx = gusts
dd = wind direction
rr = precipitation

Next stations